KAWO/AWO METAR and TAF weather

Enter ICAO airport designator
Station Type Date Time Source
KAWO METAR 2019/02/23 17:56 UTC NOAA

KAWO 231756Z AUTO 14006KT 10SM -RA BKN020 OVC033 04/02 A3012 RMK AO2 RAB43 SLP207 P0000 60000 T00390022 10039 20006 51010


Station Type Date Time Source
KAWO Decoded METAR 2019/02/23 17:56 UTC NOAA

Arlington Municipal, WA, United States (KAWO) 48-10N 122-10W
Feb 23, 2019 - 12:56 PM EST / 2019.02.23 1756 UTC
Wind: from the SE (140 degrees) at 7 MPH (6 KT):0
Visibility: 10 mile(s):0
Sky conditions: overcast
Weather: light rain
Precipitation last hour: A trace
Temperature: 39.0 F (3.9 C)
Dew Point: 36.0 F (2.2 C)
Relative Humidity: 88%
Pressure (altimeter): 30.12 in. Hg (1019 hPa)
Pressure tendency: 0.03 inches (1.0 hPa) higher than three hours ago
ob: KAWO 231756Z AUTO 14006KT 10SM -RA BKN020 OVC033 04/02 A3012 RMK AO2 RAB43 SLP207 P0000 60000 T00390022 10039 20006 51010
cycle: 18

Station Type Date Time Source
KAWO TAF UTC NOAA

Error!


Example: see airport list